Avenel, NJ

6:20 PM EDT on October 22, 2014 (GMT -0400)
Avenel St. | Change Station
CLOSE
Current Station
Personal Weather Station
Location: Avenel, NJ
Elevation: 43 ft
Nearby Weather Stations

Elev 43 ft 40.58 °N, 74.27 °W | Updated 2 seconds ago

Light Rain
Light Rain
52.1 °F
Feels Like 52.1 °F
N
0.0
Wind Variable Wind from WNW

Today
High -- | Low -- °F
--% Chance of Precip.
Yesterday
High -- | Low -- °F
Precip. -- in
7:15 AM 6:06 PM
Waning Crescent, 1% visible
Pressure 29.85 in
Visibility 5.0 miles
Clouds Scattered Clouds 1700 ft
Mostly Cloudy 3000 ft
Overcast 3500 ft
Dew Point 50 °F
Humidity 92%
Rainfall 0.67 in
Snow Depth Not available.
UV 0.0 out of 12
Pollen .30 out of 12
Air Quality Not available.
Flu Activity Sporadic
METAR KLDJ 222215Z AUTO 02011G14KT 5SM -RA SCT017 BKN030 OVC035 14/12 A2985 RMK AO2 LTG DSNT S P0002 T01360115

More Conditions Fewer Conditions

Pressure 29.85 in
Visibility 5.0 miles
Clouds Scattered Clouds 1700 ft
Mostly Cloudy 3000 ft
Overcast 3500 ft
Dew Point 50 °F
Humidity 92%
Rainfall 0.67 in
Snow Depth Not available.
UV 0.0 out of 12
Pollen .30 out of 12
Air Quality Not available.
Flu Activity Sporadic
METAR KLDJ 222215Z AUTO 02011G14KT 5SM -RA SCT017 BKN030 OVC035 14/12 A2985 RMK AO2 LTG DSNT S P0002 T01360115

More Conditions Fewer Conditions

10-Day Weather Forecast

Almanac

Astronomy

Oct. 22, 2014 Rise Set
Actual Time 7:15 AM EDT 6:06 PM EDT
Civil Twilight 6:47 AM EDT 6:34 PM EDT
Nautical Twilight 6:16 AM EDT 7:06 PM EDT
Astronomical Twilight 5:44 AM EDT 7:37 PM EDT
Moon 5:54 AM EDT 5:32 PM EDT
Length of Visible Light 11h 46m
Length of Day
10h 50m
Tomorrow will be 2m 31s shorter.
Waning Crescent, 1% of the Moon is Illuminated
Today
Waning Crescent
Oct 23
New
Oct 30
First Quarter
Nov 6
Full
Nov 14
Last Quarter

Today's Extremes

State Highs State Lows

Community

WunderPhotos

Upload Photos

1,764,064 photos uploaded!

WunderBlogs® & News

Nearby

Snow Depth

Station Depth Elevation
No new snow has been reported.

Earthquake Activity

City Distance Mag. Time & Date
No recent earthquake activity has been reported nearby.
Minimum magnitude displayed is 2.5.

Coastal Water Temperatures

Place Temperature
Sandy Hook, NJ 61.0 °F
The Battery, NY 63.0 °F
Bergen Point West Reach, NJ 62.1 °F

Nearby Weather Stations